Latest Coastal Weather Observations for Alva Beach

IDQ60701

Issued at 9:41 am EST Friday 12 February 2016 (issued every 10 minutes, with the page automatically refreshed every 10 minutes)

About coastal observations | Map of coastal stations | Coastal observations for QLD | Marine services | Other Formats
Station Details ID: 033295 Name: ALVA BEACH Lat: -19.46 Lon: 147.48 Height: 7.5 m
Data from the previous 72 hours. | See also: Recent months at Alva Beach
Date/Time
EST
Temp

°C
Wind Pressure Rain
since 9am
mm
Weather Cloud Vis
km
Sea
Height
m
Swell
Dir
 
Speed
knots
Gust
knots
hPa Trend Height
m
Period
s
Dir
12/09:30am 30.4 SSE 5 10 1010.0 - 0.0 - - - - - - -
12/09:00am 29.5 SSE 5 9 1010.0 - 0.0 - - - - - - -
12/08:30am 28.4 S 5 7 1009.9 - 0.0 - - - - - - -
12/08:00am 27.3 S 5 8 1010.1 - 0.0 - - - - - - -
12/07:30am 26.3 SSW 5 8 1009.9 - 0.0 - - - - - - -
12/07:00am 24.6 SW 3 5 1009.6 - 0.0 - - - - - - -
12/06:30am 23.1 SSW 4 7 1009.4 - 0.0 - - - - - - -
12/06:00am 23.1 SSW 4 6 1009.2 - 0.0 - - - - - - -
12/05:30am 23.4 SSW 4 5 1008.8 - 0.0 - - - - - - -
12/05:00am 23.7 SSW 5 8 1008.6 - 0.0 - - - - - - -
12/04:30am 23.7 SSW 5 7 1008.2 - 0.0 - - - - - - -
12/04:00am 23.9 SSW 5 7 1008.2 - 0.0 - - - - - - -
12/03:30am 24.0 SSW 4 6 1008.2 - 0.0 - - - - - - -
12/03:00am 24.1 SSW 4 5 1008.0 - 0.0 - - - - - - -
12/02:30am 24.3 SSW 3 4 1008.1 - 0.0 - - - - - - -
12/02:00am 24.3 SW 4 5 1008.3 - 0.0 - - - - - - -
12/01:30am 24.9 SW 3 5 1008.5 - 0.0 - - - - - - -
12/01:00am 25.7 SW 3 4 1008.6 - 0.0 - - - - - - -
12/12:30am 26.8 S 5 8 1008.9 - 0.0 - - - - - - -
12/12:00am 27.7 ESE 7 13 1009.1 - 0.0 - - - - - - -
 
Date/Time
EST
Temp

°C
Wind Pressure Rain
since 9am
mm
Weather Cloud Vis
km
Sea
Height
m
Swell
Dir
 
Speed
knots
Gust
knots
hPa Trend Height
m
Period
s
Dir
11/11:30pm 27.9 ESE 7 11 1009.2 - 0.0 - - - - - - -
11/11:00pm 28.0 ESE 9 14 1009.4 - 0.0 - - - - - - -
11/10:30pm 28.1 E 11 16 1009.4 - 0.0 - - - - - - -
11/10:00pm 28.1 E 11 15 1009.4 - 0.0 - - - - - - -
11/09:30pm 28.0 E 10 13 1009.3 - 0.0 - - - - - - -
11/09:00pm 28.3 E 10 14 1008.8 - 0.0 - - - - - - -
11/08:30pm 28.3 E 9 13 1008.6 - 0.0 - - - - - - -
11/08:00pm 28.1 E 9 12 1008.4 - 0.0 - - - - - - -
11/07:30pm 28.3 E 9 12 1008.3 - 0.0 - - - - - - -
11/07:00pm 28.2 E 10 15 1007.9 - 0.0 - - - - - - -
11/06:30pm 28.6 E 10 16 1007.6 - 0.0 - - - - - - -
11/06:00pm 28.7 E 10 13 1007.5 - 0.0 - - - - - - -
11/05:30pm 28.9 E 9 13 1007.1 - 0.0 - - - - - - -
11/05:00pm 29.1 E 9 14 1006.8 - 0.0 - - - - - - -
11/04:30pm 28.9 E 10 14 1006.5 - 0.0 - - - - - - -
11/04:00pm 29.1 E 11 15 1006.4 - 0.0 - - - - - - -
11/03:30pm 30.4 E 12 17 1006.6 - 0.0 - - - - - - -
11/03:00pm 30.4 ESE 11 16 1006.9 - 0.0 - - - - - - -
11/02:30pm 30.8 ESE 11 17 1007.0 - 0.0 - - - - - - -
11/02:00pm 30.6 ESE 8 13 1007.3 - 0.0 - - - - - - -
11/01:30pm 31.5 ESE 10 17 1007.5 - 0.0 - - - - - - -
11/01:00pm 31.5 ESE 11 18 1007.9 - 0.0 - - - - - - -
11/12:30pm 30.4 ESE 11 17 1008.3 - 0.0 - - - - - - -
11/12:00pm 32.0 ESE 9 16 1008.9 - 0.0 - - - - - - -
11/11:30am 31.7 ESE 9 13 1009.0 - 0.0 - - - - - - -
11/11:00am 31.3 ESE 9 13 1009.3 - 0.0 - - - - - - -
11/10:30am 29.6 ESE 9 15 1009.4 - 0.0 - - - - - - -
11/10:00am 29.3 SE 9 13 1009.5 - 0.0 - - - - - - -
11/09:30am 29.8 SE 7 12 1009.5 - 0.0 - - - - - - -
11/09:00am 29.3 SE 7 13 1009.5 - 0.0 - - - - - - -
11/08:30am 28.6 SSE 6 11 1009.4 - 0.0 - - - - - - -
11/08:00am 27.6 S 7 11 1009.2 - 0.0 - - - - - - -
11/07:30am 26.2 S 6 10 1009.1 - 0.0 - - - - - - -
11/07:00am 24.9 SSW 5 8 1008.8 - 0.0 - - - - - - -
11/06:30am 23.8 SSW 5 8 1008.3 - 0.0 - - - - - - -
11/06:00am 23.4 SSW 5 7 1007.9 - 0.0 - - - - - - -
11/05:30am 23.8 SSW 5 6 1007.8 - 0.0 - - - - - - -
11/05:00am 24.2 SW 5 6 1007.6 - 0.0 - - - - - - -
11/04:30am 24.8 SSW 5 7 1007.1 - 0.0 - - - - - - -
11/04:00am 25.3 SSW 4 6 1006.9 - 0.0 - - - - - - -
11/03:30am 26.9 ESE 7 12 1006.9 - 0.0 - - - - - - -
11/03:00am 27.0 ESE 7 13 1007.0 - 0.0 - - - - - - -
11/02:30am 27.3 SE 9 14 1007.0 - 0.0 - - - - - - -
11/02:00am 27.5 SE 9 16 1007.1 - 0.0 - - - - - - -
11/01:30am 27.7 SE 9 16 1007.3 - 0.0 - - - - - - -
11/01:00am 27.8 SE 8 16 1007.6 - 0.0 - - - - - - -
11/12:30am 27.6 ESE 9 15 1008.0 - 0.0 - - - - - - -
11/12:00am 27.5 ESE 9 12 1008.1 - 0.0 - - - - - - -
 
Date/Time
EST
Temp

°C
Wind Pressure Rain
since 9am
mm
Weather Cloud Vis
km
Sea
Height
m
Swell
Dir
 
Speed
knots
Gust
knots
hPa Trend Height
m
Period
s
Dir
10/11:30pm 27.6 ESE 9 17 1008.2 - 0.0 - - - - - - -
10/11:00pm 27.9 ESE 9 16 1008.6 - 0.0 - - - - - - -
10/10:30pm 28.0 ESE 11 19 1008.8 - 0.0 - - - - - - -
10/10:00pm 28.2 ESE 15 24 1008.8 - 0.0 - - - - - - -
10/09:30pm 28.3 E 16 21 1008.7 - 0.0 - - - - - - -
10/09:00pm 28.4 E 17 23 1008.4 - 0.0 - - - - - - -
10/08:30pm 28.4 E 16 21 1008.3 - 0.0 - - - - - - -
10/08:00pm 28.4 E 16 22 1008.0 - 0.0 - - - - - - -
10/07:30pm 28.3 E 16 21 1007.8 - 0.0 - - - - - - -
10/07:00pm 28.3 E 15 21 1007.4 - 0.0 - - - - - - -
10/06:30pm 28.3 E 16 22 1007.0 - 0.0 - - - - - - -
10/06:00pm 28.5 E 14 19 1006.6 - 0.0 - - - - - - -
10/05:30pm 29.0 E 13 18 1006.3 - 0.0 - - - - - - -
10/05:00pm 29.0 E 13 17 1006.2 - 0.0 - - - - - - -
10/04:30pm 29.3 E 11 16 1006.1 - 0.0 - - - - - - -
10/04:00pm 29.5 E 11 16 1006.0 - 0.0 - - - - - - -
10/03:30pm 30.0 E 10 14 1006.1 - 0.0 - - - - - - -
10/03:00pm 29.7 E 11 15 1006.3 - 0.0 - - - - - - -
10/02:30pm 29.9 E 11 15 1006.8 - 0.0 - - - - - - -
10/02:00pm 29.9 E 11 15 1007.2 - 0.0 - - - - - - -
10/01:30pm 31.4 E 11 15 1007.5 - 0.0 - - - - - - -
10/01:00pm 31.9 ESE 10 15 1007.9 - 0.0 - - - - - - -
10/12:30pm 31.4 ESE 10 15 1008.3 - 0.0 - - - - - - -
10/12:00pm 32.1 ESE 8 15 1008.8 - 0.0 - - - - - - -
10/11:30am 31.5 ESE 9 16 1009.1 - 0.0 - - - - - - -
10/11:00am 31.6 ESE 9 19 1009.2 - 0.0 - - - - - - -
10/10:30am 31.2 ESE 9 16 1009.3 - 0.0 - - - - - - -
10/10:00am 29.3 SE 7 13 1009.5 - 0.0 - - - - - - -
10/09:30am 29.4 SE 7 13 1009.5 - 0.0 - - - - - - -
10/09:00am 29.4 SE 7 11 1009.5 - 0.0 - - - - - - -
10/08:30am 29.0 SE 7 11 1009.2 - 0.0 - - - - - - -
10/08:00am 28.3 SSE 5 8 1008.9 - 0.0 - - - - - - -
10/07:30am 26.7 S 5 9 1008.5 - 0.0 - - - - - - -
10/07:00am 25.8 SSW 5 7 1008.3 - 0.0 - - - - - - -
10/06:30am 25.0 S 5 7 1008.0 - 0.0 - - - - - - -
10/06:00am 24.8 S 5 7 1007.7 - 0.0 - - - - - - -
10/05:30am 24.9 S 5 7 1007.5 - 0.0 - - - - - - -
10/05:00am 24.7 SSW 5 8 1007.3 - 0.0 - - - - - - -
10/04:30am 24.7 SW 4 7 1007.3 - 0.0 - - - - - - -
10/04:00am 24.7 SSW 4 7 1007.3 - 0.0 - - - - - - -
10/03:30am 25.1 SSW 5 7 1006.9 - 0.0 - - - - - - -
10/03:00am 25.5 SSW 3 7 1006.9 - 0.0 - - - - - - -
10/02:30am 25.5 SSE 6 9 1007.1 - 0.0 - - - - - - -
10/02:00am 25.5 SSE 5 8 1007.3 - 0.0 - - - - - - -
10/01:30am 25.6 S 4 6 1007.8 - 0.0 - - - - - - -
10/01:00am 26.7 SE 9 16 1008.1 - 0.0 - - - - - - -
10/12:30am 27.4 ESE 14 21 1008.6 - 0.0 - - - - - - -
10/12:00am 27.6 SE 13 23 1008.9 - 0.0 - - - - - - -
 
Date/Time
EST
Temp

°C
Wind Pressure Rain
since 9am
mm
Weather Cloud Vis
km
Sea
Height
m
Swell
Dir
 
Speed
knots
Gust
knots
hPa Trend Height
m
Period
s
Dir
09/11:30pm 27.6 SE 15 22 1008.9 - 0.0 - - - - - - -
09/11:00pm 27.9 SE 14 24 1009.2 - 0.0 - - - - - - -
09/10:30pm 28.4 ESE 12 18 1009.2 - 0.0 - - - - - - -
09/10:00pm 28.4 ESE 14 24 1009.2 - 0.0 - - - - - - -
09/09:30pm 28.4 ESE 15 23 1009.1 - 0.0 - - - - - - -
09/09:00pm 28.5 ESE 13 22 1008.8 - 0.0 - - - - - - -
09/08:30pm 28.7 ESE 15 25 1008.7 - 0.0 - - - - - - -
09/08:10pm 28.3 ESE 16 26 1008.6 - 0.0 - - - - - - -
09/08:00pm 28.5 ESE 18 25 1008.6 - 0.0 - - - - - - -
09/07:30pm 28.5 ESE 20 27 1008.2 - 0.0 - - - - - - -
09/07:00pm 28.7 E 19 27 1007.8 - 0.0 - - - - - - -
09/06:30pm 28.7 E 19 26 1007.7 - 0.0 - - - - - - -
09/06:00pm 28.9 E 18 23 1007.5 - 0.0 - - - - - - -
09/05:30pm 29.1 E 19 26 1007.2 - 0.0 - - - - - - -
09/05:00pm 29.4 E 18 23 1006.9 - 0.0 - - - - - - -
09/04:30pm 29.6 E 15 21 1006.6 - 0.0 - - - - - - -
09/04:00pm 30.3 E 14 18 1006.7 - 0.0 - - - - - - -
09/03:30pm 30.4 E 15 20 1006.8 - 0.0 - - - - - - -
09/03:00pm 30.2 E 13 18 1007.0 - 0.0 - - - - - - -
09/02:30pm 30.7 E 13 18 1007.3 - 0.0 - - - - - - -
09/02:00pm 30.5 E 14 19 1007.6 - 0.0 - - - - - - -
09/01:30pm 32.3 ESE 13 17 1007.9 - 0.0 - - - - - - -
09/01:00pm 32.5 ESE 12 17 1008.4 - 0.0 - - - - - - -
09/12:30pm 32.2 ESE 12 17 1008.8 - 0.0 - - - - - - -
09/12:00pm 32.4 ESE 9 15 1009.2 - 0.0 - - - - - - -
09/11:30am 32.1 ESE 10 16 1009.3 - 0.0 - - - - - - -
09/11:00am 31.1 SE 8 15 1009.5 - 0.0 - - - - - - -
09/10:30am 30.9 SE 8 13 1009.9 - 0.0 - - - - - - -
09/10:00am 30.7 SE 8 17 1010.0 - 0.0 - - - - - - -

Other Formats:

Comma delimited format used in spreadsheet applications
http://www.bom.gov.au/fwo/IDQ60701/IDQ60701.95296.axf

JavaScript Object Notation format (JSON) in row-major order
http://www.bom.gov.au/fwo/IDQ60701/IDQ60701.95296.json